ISL weather

Atatürk International Airport
Istanbul, İstanbul Province, Turkey

Public forecast

Using degrees Celsius for public forecast. Weather courtesy of forecast.io.

Current aviation weather report (METAR) for Atatürk International Airport

Retrieved 2019/11/19 03:20 UTC (38 minutes ago):

LTBA 190320Z 35004KT 2800 BR FEW004 11/09 Q1024 NOSIG RMK RWY17L 34004KT RWY05 VRB01KT RWY23 03003KT

Aviation forecast (TAF) for Atatürk International Airport

Retrieved 2019-11-19 00:00 UTC (4 hours ago):

TAF LTBA 182240Z 1900/2006 VRB02KT CAVOK PROB30 1903/1907 2000 BR BECMG 1907/1911 FEW032